createdAt,value
2017-05-17T00:00:03.602Z,12.9
2017-05-17T00:00:08.037Z,12.9
2017-05-17T00:00:12.403Z,12.9
2017-05-17T00:00:16.597Z,12.9
2017-05-17T00:00:20.917Z,12.89
2017-05-17T00:00:25.105Z,12.9
2017-05-17T00:00:29.537Z,12.9
2017-05-17T00:00:33.733Z,12.9
2017-05-17T00:00:38.190Z,12.9
2017-05-17T00:00:42.501Z,12.9
2017-05-17T00:00:46.815Z,12.89
2017-05-17T00:00:51.132Z,12.9
2017-05-17T00:00:55.599Z,12.9
2017-05-17T00:01:00.038Z,12.89
2017-05-17T00:01:04.825Z,12.88
2017-05-17T00:01:09.132Z,12.89
2017-05-17T00:01:13.560Z,12.89
2017-05-17T00:01:17.989Z,12.89
2017-05-17T00:01:22.414Z,12.89
2017-05-17T00:01:26.731Z,12.89
2017-05-17T00:01:31.163Z,12.88
2017-05-17T00:01:35.591Z,12.88
2017-05-17T00:01:40.017Z,12.88
2017-05-17T00:01:44.449Z,12.88
2017-05-17T00:01:48.881Z,12.89
2017-05-17T00:01:53.189Z,12.88
2017-05-17T00:01:57.616Z,12.88
2017-05-17T00:02:02.399Z,12.88
2017-05-17T00:02:06.614Z,12.88
2017-05-17T00:02:10.817Z,12.88
2017-05-17T00:02:15.258Z,12.88
2017-05-17T00:02:19.454Z,12.88
2017-05-17T00:02:23.934Z,12.88
2017-05-17T00:02:28.124Z,12.88
2017-05-17T00:02:32.550Z,12.88
2017-05-17T00:02:36.975Z,12.88
2017-05-17T00:02:41.402Z,12.88
2017-05-17T00:02:45.835Z,12.88
2017-05-17T00:02:50.268Z,12.88
2017-05-17T00:02:54.709Z,12.88
2017-05-17T00:02:59.137Z,12.87
2017-05-17T00:03:03.576Z,12.88
2017-05-17T00:03:08.010Z,12.87
2017-05-17T00:03:12.323Z,12.88
2017-05-17T00:03:16.517Z,12.87
2017-05-17T00:03:20.839Z,12.87
2017-05-17T00:03:25.279Z,12.87
2017-05-17T00:03:29.589Z,12.87
2017-05-17T00:03:34.024Z,12.87
2017-05-17T00:03:38.450Z,12.87
2017-05-17T00:03:42.882Z,12.87
2017-05-17T00:03:47.315Z,12.87
2017-05-17T00:03:51.749Z,12.87
2017-05-17T00:03:56.181Z,12.87
2017-05-17T00:04:00.668Z,12.86
2017-05-17T00:04:05.098Z,12.86
2017-05-17T00:04:09.304Z,12.86
2017-05-17T00:04:13.633Z,12.86
2017-05-17T00:04:18.070Z,12.86
2017-05-17T00:04:22.500Z,12.86
2017-05-17T00:04:26.932Z,12.86
2017-05-17T00:04:31.365Z,12.85
2017-05-17T00:04:35.668Z,12.86
2017-05-17T00:04:40.090Z,12.85
2017-05-17T00:04:44.530Z,12.85
2017-05-17T00:04:48.961Z,12.86
2017-05-17T00:04:53.387Z,12.85
2017-05-17T00:04:57.829Z,12.85
2017-05-17T00:05:02.395Z,12.84
2017-05-17T00:05:06.872Z,12.85
2017-05-17T00:05:11.182Z,12.84
2017-05-17T00:05:15.614Z,12.84
2017-05-17T00:05:19.818Z,12.84
2017-05-17T00:05:24.247Z,12.84
2017-05-17T00:05:28.556Z,12.83
2017-05-17T00:05:32.867Z,12.82
2017-05-17T00:05:37.297Z,12.83
2017-05-17T00:05:41.719Z,12.83
2017-05-17T00:05:46.154Z,12.82
2017-05-17T00:05:50.647Z,12.82
2017-05-17T00:05:54.959Z,12.82
2017-05-17T00:05:59.434Z,12.82
2017-05-17T00:06:03.868Z,12.82
2017-05-17T00:06:08.293Z,12.81
2017-05-17T00:06:12.606Z,12.81
2017-05-17T00:06:16.807Z,12.81
2017-05-17T00:06:21.235Z,12.81
2017-05-17T00:06:25.661Z,12.81
2017-05-17T00:06:30.092Z,12.8
2017-05-17T00:06:34.416Z,12.81
2017-05-17T00:06:38.838Z,12.81
2017-05-17T00:06:43.276Z,12.79
2017-05-17T00:06:47.650Z,12.8
2017-05-17T00:06:51.849Z,12.8
2017-05-17T00:06:56.291Z,12.78
2017-05-17T00:07:00.721Z,12.79
2017-05-17T00:07:05.354Z,12.77
2017-05-17T00:07:09.788Z,12.78
2017-05-17T00:07:14.271Z,12.78
2017-05-17T00:07:18.587Z,12.78
2017-05-17T00:07:23.020Z,12.77
2017-05-17T00:07:27.502Z,12.76
2017-05-17T00:07:31.934Z,12.77
2017-05-17T00:07:36.369Z,12.76
2017-05-17T00:07:40.813Z,12.75
2017-05-17T00:07:45.124Z,12.76
2017-05-17T00:07:49.561Z,12.76
2017-05-17T00:07:53.996Z,12.75
2017-05-17T00:07:58.434Z,12.74
2017-05-17T00:08:02.866Z,12.74
2017-05-17T00:08:07.177Z,12.74
2017-05-17T00:08:11.611Z,12.73
2017-05-17T00:08:16.039Z,12.73
2017-05-17T00:08:20.474Z,12.73
2017-05-17T00:08:24.799Z,12.73
2017-05-17T00:08:29.240Z,12.72
2017-05-17T00:08:33.674Z,12.72
2017-05-17T00:08:38.109Z,12.72
2017-05-17T00:08:42.415Z,12.72
2017-05-17T00:08:46.722Z,12.72
2017-05-17T00:08:51.153Z,12.7
2017-05-17T00:08:55.595Z,12.7
2017-05-17T00:09:00.020Z,12.7
2017-05-17T00:09:04.512Z,12.71
2017-05-17T00:09:08.711Z,12.69
2017-05-17T00:09:13.135Z,12.7
2017-05-17T00:09:17.576Z,12.69
2017-05-17T00:09:22.011Z,12.68
2017-05-17T00:09:26.444Z,12.68
2017-05-17T00:09:30.878Z,12.68
2017-05-17T00:09:35.319Z,12.67
2017-05-17T00:09:39.625Z,12.67
2017-05-17T00:09:43.938Z,12.67
2017-05-17T00:09:48.370Z,12.66
2017-05-17T00:09:52.802Z,12.66
2017-05-17T00:09:57.119Z,12.66
2017-05-17T00:10:01.550Z,12.65
2017-05-17T00:10:05.869Z,12.65
2017-05-17T00:10:10.174Z,12.64
2017-05-17T00:10:14.605Z,12.64
2017-05-17T00:10:18.797Z,12.64
2017-05-17T00:10:23.225Z,12.63
2017-05-17T00:10:27.532Z,12.63
2017-05-17T00:10:31.981Z,12.63
2017-05-17T00:10:36.337Z,12.62
2017-05-17T00:10:40.765Z,12.62
2017-05-17T00:10:45.198Z,12.62
2017-05-17T00:10:49.631Z,12.6
2017-05-17T00:10:54.056Z,12.6
2017-05-17T00:10:58.483Z,12.59
2017-05-17T00:11:02.925Z,12.58
2017-05-17T00:11:07.356Z,12.58
2017-05-17T00:11:11.792Z,12.59
2017-05-17T00:11:16.227Z,12.58
2017-05-17T00:11:20.545Z,12.57
2017-05-17T00:11:24.979Z,12.57
2017-05-17T00:11:29.344Z,12.57
2017-05-17T00:11:33.772Z,12.57
2017-05-17T00:11:38.111Z,12.56
2017-05-17T00:11:42.589Z,12.55
2017-05-17T00:11:47.019Z,12.56
2017-05-17T00:11:51.336Z,12.55
2017-05-17T00:11:55.769Z,12.54
2017-05-17T00:12:00.250Z,12.54
2017-05-17T00:12:04.777Z,12.54
2017-05-17T00:12:08.739Z,12.52
2017-05-17T00:12:13.052Z,12.53
2017-05-17T00:12:17.365Z,12.52
2017-05-17T00:12:21.802Z,12.52
2017-05-17T00:12:26.112Z,12.51
2017-05-17T00:12:30.430Z,12.5
2017-05-17T00:12:34.861Z,12.5
2017-05-17T00:12:39.174Z,12.49
2017-05-17T00:12:43.615Z,12.5
2017-05-17T00:12:48.047Z,12.49
2017-05-17T00:12:52.473Z,12.48
2017-05-17T00:12:56.917Z,12.48
2017-05-17T00:13:01.235Z,12.47
2017-05-17T00:13:05.600Z,12.47
2017-05-17T00:13:09.922Z,12.47
2017-05-17T00:13:14.357Z,12.45
2017-05-17T00:13:18.788Z,12.46
2017-05-17T00:13:23.105Z,12.45
2017-05-17T00:13:27.492Z,12.44
2017-05-17T00:13:31.925Z,12.44
2017-05-17T00:13:36.358Z,12.43
2017-05-17T00:13:40.792Z,12.44
2017-05-17T00:13:45.226Z,12.43
2017-05-17T00:13:49.661Z,12.42
2017-05-17T00:13:54.113Z,12.41
2017-05-17T00:13:58.310Z,12.42
2017-05-17T00:14:02.739Z,12.41
2017-05-17T00:14:07.054Z,12.4
2017-05-17T00:14:11.484Z,12.4
2017-05-17T00:14:15.923Z,12.4
2017-05-17T00:14:20.409Z,12.39
2017-05-17T00:14:24.736Z,12.39
2017-05-17T00:14:29.163Z,12.39
2017-05-17T00:14:33.605Z,12.39
2017-05-17T00:14:38.044Z,12.38
2017-05-17T00:14:42.241Z,12.38
2017-05-17T00:14:46.688Z,12.38
2017-05-17T00:14:51.013Z,12.36
2017-05-17T00:14:55.471Z,12.37
2017-05-17T00:14:59.906Z,12.36
2017-05-17T00:15:04.537Z,12.36
2017-05-17T00:15:08.968Z,12.36
2017-05-17T00:15:13.413Z,12.36
2017-05-17T00:15:17.850Z,12.35
2017-05-17T00:15:22.286Z,12.34
2017-05-17T00:15:26.725Z,12.34
2017-05-17T00:15:31.041Z,12.35
2017-05-17T00:15:35.468Z,12.34
2017-05-17T00:15:39.901Z,12.34
2017-05-17T00:15:44.406Z,12.33
2017-05-17T00:15:48.840Z,12.33
2017-05-17T00:15:53.278Z,12.33
2017-05-17T00:15:57.724Z,12.32
2017-05-17T00:16:02.040Z,12.32
2017-05-17T00:16:06.481Z,12.32
2017-05-17T00:16:10.914Z,12.31
2017-05-17T00:16:15.224Z,12.31
2017-05-17T00:16:19.538Z,12.3
2017-05-17T00:16:23.971Z,12.31
2017-05-17T00:16:28.280Z,12.31
2017-05-17T00:16:32.714Z,12.3
2017-05-17T00:16:37.029Z,12.3
2017-05-17T00:16:41.457Z,12.3
2017-05-17T00:16:45.895Z,12.29
2017-05-17T00:16:50.329Z,12.29
2017-05-17T00:16:54.419Z,12.28
2017-05-17T00:16:58.738Z,12.28
2017-05-17T00:17:03.051Z,12.29
2017-05-17T00:17:07.255Z,12.28
2017-05-17T00:17:11.561Z,12.28
2017-05-17T00:17:15.986Z,12.28
2017-05-17T00:17:20.303Z,12.28
2017-05-17T00:17:24.792Z,12.28
2017-05-17T00:17:29.220Z,12.28
2017-05-17T00:17:33.541Z,12.27
2017-05-17T00:17:37.967Z,12.26
2017-05-17T00:17:42.404Z,12.27
2017-05-17T00:17:46.842Z,12.27
2017-05-17T00:17:51.271Z,12.27
2017-05-17T00:17:55.697Z,12.26
2017-05-17T00:18:00.138Z,12.26
2017-05-17T00:18:04.818Z,12.25
2017-05-17T00:18:09.251Z,12.27
2017-05-17T00:18:13.688Z,12.26
2017-05-17T00:18:18.005Z,12.25
2017-05-17T00:18:22.487Z,12.24
2017-05-17T00:18:26.803Z,12.24
2017-05-17T00:18:31.230Z,12.24
2017-05-17T00:18:35.547Z,12.24
2017-05-17T00:18:39.877Z,12.24
2017-05-17T00:18:44.187Z,12.23
2017-05-17T00:18:48.620Z,12.23
2017-05-17T00:18:53.047Z,12.23
2017-05-17T00:18:57.495Z,12.24
2017-05-17T00:19:01.923Z,12.23
2017-05-17T00:19:06.357Z,12.23
2017-05-17T00:19:10.793Z,12.23
2017-05-17T00:19:15.114Z,12.23
2017-05-17T00:19:19.552Z,12.22
2017-05-17T00:19:23.933Z,12.22
2017-05-17T00:19:28.365Z,12.22
2017-05-17T00:19:32.801Z,12.21
2017-05-17T00:19:37.236Z,12.21
2017-05-17T00:19:41.670Z,12.22
2017-05-17T00:19:46.102Z,12.21
2017-05-17T00:19:50.531Z,12.22
2017-05-17T00:19:54.906Z,12.21
2017-05-17T00:19:59.336Z,12.21
2017-05-17T00:20:03.964Z,12.2
2017-05-17T00:20:08.407Z,12.2
2017-05-17T00:20:12.717Z,12.19
2017-05-17T00:20:17.146Z,12.2
2017-05-17T00:20:21.569Z,12.19
2017-05-17T00:20:25.881Z,12.19
2017-05-17T00:20:30.309Z,12.19
2017-05-17T00:20:34.620Z,12.19
2017-05-17T00:20:39.053Z,12.19
2017-05-17T00:20:43.483Z,12.19
2017-05-17T00:20:47.926Z,12.18
2017-05-17T00:20:52.357Z,12.18
2017-05-17T00:20:56.781Z,12.18
2017-05-17T00:21:01.102Z,12.17
2017-05-17T00:21:05.536Z,12.18
2017-05-17T00:21:09.852Z,12.18
2017-05-17T00:21:14.275Z,12.18
2017-05-17T00:21:18.708Z,12.17
2017-05-17T00:21:23.184Z,12.17
2017-05-17T00:21:27.498Z,12.17
2017-05-17T00:21:31.935Z,12.16
2017-05-17T00:21:36.307Z,12.16
2017-05-17T00:21:40.616Z,12.15
2017-05-17T00:21:44.937Z,12.16
2017-05-17T00:21:49.373Z,12.16
2017-05-17T00:21:53.690Z,12.16
2017-05-17T00:21:58.164Z,12.16
2017-05-17T00:22:02.644Z,12.16
2017-05-17T00:22:06.958Z,12.15
2017-05-17T00:22:11.393Z,12.15
2017-05-17T00:22:15.700Z,12.15
2017-05-17T00:22:20.010Z,12.15
2017-05-17T00:22:24.323Z,12.15
2017-05-17T00:22:28.753Z,12.15
2017-05-17T00:22:33.186Z,12.15
2017-05-17T00:22:37.621Z,12.15
2017-05-17T00:22:42.053Z,12.14
2017-05-17T00:22:46.501Z,12.16
2017-05-17T00:22:50.816Z,12.15
2017-05-17T00:22:55.263Z,12.14
2017-05-17T00:22:59.695Z,12.14
2017-05-17T00:23:04.123Z,12.15
2017-05-17T00:23:08.319Z,12.14
2017-05-17T00:23:12.757Z,12.15
2017-05-17T00:23:17.237Z,12.15
2017-05-17T00:23:21.425Z,12.15
2017-05-17T00:23:25.858Z,12.14
2017-05-17T00:23:30.178Z,12.14
2017-05-17T00:23:34.369Z,12.14
2017-05-17T00:23:38.679Z,12.15
2017-05-17T00:23:42.876Z,12.13
2017-05-17T00:23:47.317Z,12.12
2017-05-17T00:23:51.629Z,12.13
2017-05-17T00:23:56.057Z,12.13
2017-05-17T00:24:00.490Z,12.13
2017-05-17T00:24:04.924Z,12.13
2017-05-17T00:24:09.116Z,12.15
2017-05-17T00:24:13.539Z,12.13
2017-05-17T00:24:17.971Z,12.13
2017-05-17T00:24:22.419Z,12.13
2017-05-17T00:24:26.727Z,12.13
2017-05-17T00:24:31.156Z,12.13
2017-05-17T00:24:35.583Z,12.13
2017-05-17T00:24:40.015Z,12.13
2017-05-17T00:24:44.452Z,12.13
2017-05-17T00:24:48.938Z,12.12
2017-05-17T00:24:53.369Z,12.12
2017-05-17T00:24:57.811Z,12.12
2017-05-17T00:25:02.506Z,12.13
2017-05-17T00:25:06.823Z,12.13
2017-05-17T00:25:11.016Z,12.12
2017-05-17T00:25:15.341Z,12.13
2017-05-17T00:25:19.532Z,12.12
2017-05-17T00:25:23.853Z,12.12
2017-05-17T00:25:28.165Z,12.12
2017-05-17T00:25:32.606Z,12.12
2017-05-17T00:25:37.038Z,12.12
2017-05-17T00:25:41.345Z,12.12
2017-05-17T00:25:45.779Z,12.11
2017-05-17T00:25:50.260Z,12.12
2017-05-17T00:25:54.687Z,12.12
2017-05-17T00:25:59.126Z,12.11
2017-05-17T00:26:03.589Z,12.12
2017-05-17T00:26:07.899Z,12.12
2017-05-17T00:26:12.097Z,12.11
2017-05-17T00:26:16.578Z,12.11
2017-05-17T00:26:20.891Z,12.11
2017-05-17T00:26:25.095Z,12.12
2017-05-17T00:26:29.404Z,12.12
2017-05-17T00:26:33.720Z,12.11
2017-05-17T00:26:38.145Z,12.11
2017-05-17T00:26:42.469Z,12.1
2017-05-17T00:26:46.917Z,12.1
2017-05-17T00:26:51.342Z,12.1
2017-05-17T00:26:55.779Z,12.1
2017-05-17T00:27:00.216Z,12.1
2017-05-17T00:27:04.896Z,12.1
2017-05-17T00:27:09.202Z,12.1
2017-05-17T00:27:13.635Z,12.11
2017-05-17T00:27:17.958Z,12.1
2017-05-17T00:27:22.385Z,12.1
2017-05-17T00:27:26.457Z,12.1
2017-05-17T00:27:30.901Z,12.1
2017-05-17T00:27:35.341Z,12.09
2017-05-17T00:27:39.783Z,12.09
2017-05-17T00:27:44.219Z,12.09
2017-05-17T00:27:48.582Z,12.09
2017-05-17T00:27:53.015Z,12.08
2017-05-17T00:27:57.452Z,12.09
2017-05-17T00:28:02.229Z,12.09
2017-05-17T00:28:06.539Z,12.08
2017-05-17T00:28:10.861Z,12.09
2017-05-17T00:28:15.313Z,12.09
2017-05-17T00:28:19.626Z,12.08
2017-05-17T00:28:24.057Z,12.08
2017-05-17T00:28:28.497Z,12.08
2017-05-17T00:28:32.933Z,12.08
2017-05-17T00:28:37.367Z,12.08
2017-05-17T00:28:41.866Z,12.08
2017-05-17T00:28:46.177Z,12.08
2017-05-17T00:28:50.616Z,12.07
2017-05-17T00:28:55.098Z,12.08
2017-05-17T00:28:59.523Z,12.08
2017-05-17T00:29:04.065Z,12.07
2017-05-17T00:29:08.552Z,12.07
2017-05-17T00:29:12.861Z,12.07
2017-05-17T00:29:17.050Z,12.08
2017-05-17T00:29:21.499Z,12.08
2017-05-17T00:29:25.928Z,12.08
2017-05-17T00:29:30.357Z,12.08
2017-05-17T00:29:34.557Z,12.08
2017-05-17T00:29:38.985Z,12.07
2017-05-17T00:29:43.299Z,12.08
2017-05-17T00:29:47.734Z,12.08
2017-05-17T00:29:52.220Z,12.08
2017-05-17T00:29:56.558Z,12.07
2017-05-17T00:30:00.987Z,12.07
2017-05-17T00:30:05.354Z,12.08
2017-05-17T00:30:09.555Z,12.08
2017-05-17T00:30:13.982Z,12.07
2017-05-17T00:30:18.401Z,12.07
2017-05-17T00:30:22.590Z,12.07
2017-05-17T00:30:26.897Z,12.09
2017-05-17T00:30:31.202Z,12.08
2017-05-17T00:30:35.514Z,12.08
2017-05-17T00:30:39.948Z,12.07
2017-05-17T00:30:44.256Z,12.08
2017-05-17T00:30:48.694Z,12.08
2017-05-17T00:30:53.123Z,12.08
2017-05-17T00:30:57.549Z,12.08
2017-05-17T00:31:01.975Z,12.08
2017-05-17T00:31:06.413Z,12.08
2017-05-17T00:31:10.736Z,12.08
2017-05-17T00:31:15.176Z,12.07
2017-05-17T00:31:19.605Z,12.08
2017-05-17T00:31:24.032Z,12.07
2017-05-17T00:31:28.345Z,12.09
2017-05-17T00:31:32.774Z,12.08
2017-05-17T00:31:37.205Z,12.08
2017-05-17T00:31:41.630Z,12.08
2017-05-17T00:31:46.060Z,12.08
2017-05-17T00:31:50.499Z,12.08
2017-05-17T00:31:54.813Z,12.08
2017-05-17T00:31:59.188Z,12.09
2017-05-17T00:32:03.545Z,12.09
2017-05-17T00:32:07.741Z,12.09
2017-05-17T00:32:12.059Z,12.09
2017-05-17T00:32:16.489Z,12.09
2017-05-17T00:32:20.911Z,12.09
2017-05-17T00:32:25.339Z,12.1
2017-05-17T00:32:29.777Z,12.1
2017-05-17T00:32:34.225Z,12.09
2017-05-17T00:32:38.661Z,12.1
2017-05-17T00:32:42.983Z,12.11
2017-05-17T00:32:47.298Z,12.11
2017-05-17T00:32:51.610Z,12.11
2017-05-17T00:32:55.804Z,12.11
2017-05-17T00:33:00.240Z,12.11
2017-05-17T00:33:04.968Z,12.11
2017-05-17T00:33:09.292Z,12.11
2017-05-17T00:33:13.736Z,12.11
2017-05-17T00:33:18.052Z,12.12
2017-05-17T00:33:22.477Z,12.12
2017-05-17T00:33:26.911Z,12.12
2017-05-17T00:33:31.392Z,12.12
2017-05-17T00:33:35.710Z,12.13
2017-05-17T00:33:40.147Z,12.13
2017-05-17T00:33:44.590Z,12.13
2017-05-17T00:33:49.022Z,12.14
2017-05-17T00:33:53.215Z,12.14
2017-05-17T00:33:57.544Z,12.15
2017-05-17T00:34:01.976Z,12.14
2017-05-17T00:34:06.442Z,12.15
2017-05-17T00:34:10.870Z,12.15
2017-05-17T00:34:15.193Z,12.15
2017-05-17T00:34:19.502Z,12.16
2017-05-17T00:34:23.938Z,12.16
2017-05-17T00:34:28.374Z,12.16
2017-05-17T00:34:32.806Z,12.16
2017-05-17T00:34:37.235Z,12.16
2017-05-17T00:34:41.662Z,12.17
2017-05-17T00:34:45.848Z,12.17
2017-05-17T00:34:50.330Z,12.17
2017-05-17T00:34:54.779Z,12.16
2017-05-17T00:34:59.205Z,12.18
2017-05-17T00:35:03.632Z,12.18
2017-05-17T00:35:08.064Z,12.18
2017-05-17T00:35:12.369Z,12.18
2017-05-17T00:35:16.684Z,12.19
2017-05-17T00:35:21.001Z,12.18
2017-05-17T00:35:25.306Z,12.19
2017-05-17T00:35:29.733Z,12.18
2017-05-17T00:35:34.158Z,12.19
2017-05-17T00:35:38.583Z,12.19
2017-05-17T00:35:42.901Z,12.2
2017-05-17T00:35:47.326Z,12.2
2017-05-17T00:35:51.757Z,12.21
2017-05-17T00:35:56.195Z,12.2
2017-05-17T00:36:00.566Z,12.2
2017-05-17T00:36:05.000Z,12.2
2017-05-17T00:36:09.190Z,12.21
2017-05-17T00:36:13.512Z,12.21
2017-05-17T00:36:17.945Z,12.22
2017-05-17T00:36:22.371Z,12.21
2017-05-17T00:36:26.684Z,12.22
2017-05-17T00:36:31.113Z,12.21
2017-05-17T00:36:35.445Z,12.22
2017-05-17T00:36:39.881Z,12.22
2017-05-17T00:36:44.313Z,12.23
2017-05-17T00:36:48.788Z,12.22
2017-05-17T00:36:53.220Z,12.24
2017-05-17T00:36:57.665Z,12.23
2017-05-17T00:37:02.282Z,12.23
2017-05-17T00:37:06.484Z,12.23
2017-05-17T00:37:10.916Z,12.24
2017-05-17T00:37:15.341Z,12.23
2017-05-17T00:37:19.659Z,12.23
2017-05-17T00:37:24.090Z,12.24
2017-05-17T00:37:28.414Z,12.23
2017-05-17T00:37:32.848Z,12.24
2017-05-17T00:37:37.154Z,12.24
2017-05-17T00:37:41.583Z,12.25
2017-05-17T00:37:46.021Z,12.24
2017-05-17T00:37:50.328Z,12.24
2017-05-17T00:37:54.780Z,12.25
2017-05-17T00:37:59.208Z,12.25
2017-05-17T00:38:03.528Z,12.25
2017-05-17T00:38:07.838Z,12.25
2017-05-17T00:38:12.160Z,12.25
2017-05-17T00:38:16.612Z,12.25
2017-05-17T00:38:20.920Z,12.25
2017-05-17T00:38:25.245Z,12.26
2017-05-17T00:38:29.442Z,12.25
2017-05-17T00:38:33.870Z,12.25
2017-05-17T00:38:38.294Z,12.25
2017-05-17T00:38:42.739Z,12.25
2017-05-17T00:38:47.170Z,12.25
2017-05-17T00:38:51.597Z,12.26
2017-05-17T00:38:56.091Z,12.26
2017-05-17T00:39:00.403Z,12.26
2017-05-17T00:39:04.843Z,12.26
2017-05-17T00:39:09.271Z,12.26
2017-05-17T00:39:13.721Z,12.25
2017-05-17T00:39:18.142Z,12.26
2017-05-17T00:39:22.578Z,12.26
2017-05-17T00:39:27.020Z,12.26
2017-05-17T00:39:31.447Z,12.26
2017-05-17T00:39:35.885Z,12.26
2017-05-17T00:39:40.322Z,12.26
2017-05-17T00:39:44.751Z,12.26
2017-05-17T00:39:49.205Z,12.27
2017-05-17T00:39:53.688Z,12.26
2017-05-17T00:39:58.118Z,12.26
2017-05-17T00:40:02.792Z,12.27
2017-05-17T00:40:07.135Z,12.27
2017-05-17T00:40:11.442Z,12.27
2017-05-17T00:40:15.866Z,12.26
2017-05-17T00:40:20.057Z,12.27
2017-05-17T00:40:24.362Z,12.26
2017-05-17T00:40:28.790Z,12.28
2017-05-17T00:40:33.094Z,12.27
2017-05-17T00:40:37.402Z,12.28
2017-05-17T00:40:41.763Z,12.27
2017-05-17T00:40:46.189Z,12.27
2017-05-17T00:40:50.615Z,12.27
2017-05-17T00:40:54.931Z,12.27
2017-05-17T00:40:59.355Z,12.27
2017-05-17T00:41:03.784Z,12.27
2017-05-17T00:41:08.105Z,12.27
2017-05-17T00:41:12.534Z,12.26
2017-05-17T00:41:16.964Z,12.27
2017-05-17T00:41:21.393Z,12.28
2017-05-17T00:41:25.821Z,12.27
2017-05-17T00:41:30.255Z,12.27
2017-05-17T00:41:34.683Z,12.27
2017-05-17T00:41:39.113Z,12.27
2017-05-17T00:41:43.543Z,12.28
2017-05-17T00:41:47.863Z,12.27
2017-05-17T00:41:52.300Z,12.27
2017-05-17T00:41:56.626Z,12.27
2017-05-17T00:42:00.978Z,12.28
2017-05-17T00:42:05.511Z,12.28
2017-05-17T00:42:09.591Z,12.28
2017-05-17T00:42:14.020Z,12.28
2017-05-17T00:42:18.458Z,12.28
2017-05-17T00:42:22.885Z,12.28
2017-05-17T00:42:27.312Z,12.28
2017-05-17T00:42:31.745Z,12.28
2017-05-17T00:42:36.177Z,12.28
2017-05-17T00:42:40.607Z,12.29
2017-05-17T00:42:45.102Z,12.28
2017-05-17T00:42:49.539Z,12.28
2017-05-17T00:42:53.975Z,12.28
2017-05-17T00:42:58.406Z,12.29
2017-05-17T00:43:02.971Z,12.28
2017-05-17T00:43:07.402Z,12.29
2017-05-17T00:43:11.594Z,12.29
2017-05-17T00:43:16.022Z,12.29
2017-05-17T00:43:20.338Z,12.29
2017-05-17T00:43:24.648Z,12.29
2017-05-17T00:43:29.081Z,12.3
2017-05-17T00:43:33.513Z,12.3
2017-05-17T00:43:37.952Z,12.29
2017-05-17T00:43:42.381Z,12.29
2017-05-17T00:43:46.825Z,12.29
2017-05-17T00:43:51.326Z,12.29
2017-05-17T00:43:55.349Z,12.29
2017-05-17T00:43:59.781Z,12.29
2017-05-17T00:44:04.141Z,12.3
2017-05-17T00:44:08.449Z,12.3
2017-05-17T00:44:12.526Z,12.3
2017-05-17T00:44:16.959Z,12.3
2017-05-17T00:44:21.266Z,12.3
2017-05-17T00:44:25.699Z,12.31
2017-05-17T00:44:30.145Z,12.31
2017-05-17T00:44:34.635Z,12.3
2017-05-17T00:44:39.067Z,12.3
2017-05-17T00:44:43.507Z,12.3
2017-05-17T00:44:47.985Z,12.3
2017-05-17T00:44:52.343Z,12.3
2017-05-17T00:44:56.782Z,12.3
2017-05-17T00:45:01.212Z,12.3
2017-05-17T00:45:05.530Z,12.3
2017-05-17T00:45:09.965Z,12.31
2017-05-17T00:45:14.276Z,12.31
2017-05-17T00:45:18.698Z,12.3
2017-05-17T00:45:23.023Z,12.3
2017-05-17T00:45:27.334Z,12.3
2017-05-17T00:45:31.763Z,12.3
2017-05-17T00:45:36.193Z,12.31
2017-05-17T00:45:40.625Z,12.31
2017-05-17T00:45:44.939Z,12.3
2017-05-17T00:45:49.367Z,12.31
2017-05-17T00:45:53.795Z,12.3
2017-05-17T00:45:58.222Z,12.31
2017-05-17T00:46:02.585Z,12.31
2017-05-17T00:46:06.902Z,12.31
2017-05-17T00:46:11.108Z,12.31
2017-05-17T00:46:15.427Z,12.3
2017-05-17T00:46:19.855Z,12.3
2017-05-17T00:46:24.286Z,12.31
2017-05-17T00:46:28.714Z,12.31
2017-05-17T00:46:33.023Z,12.31
2017-05-17T00:46:37.220Z,12.31
2017-05-17T00:46:41.646Z,12.3
2017-05-17T00:46:46.075Z,12.31
2017-05-17T00:46:50.511Z,12.31
2017-05-17T00:46:54.822Z,12.3
2017-05-17T00:46:59.252Z,12.31
2017-05-17T00:47:03.682Z,12.31
2017-05-17T00:47:08.165Z,12.31
2017-05-17T00:47:12.608Z,12.31
2017-05-17T00:47:17.034Z,12.31
2017-05-17T00:47:21.531Z,12.31
2017-05-17T00:47:25.958Z,12.31
2017-05-17T00:47:30.271Z,12.31
2017-05-17T00:47:34.578Z,12.31
2017-05-17T00:47:38.891Z,12.3
2017-05-17T00:47:43.213Z,12.3
2017-05-17T00:47:47.706Z,12.31
2017-05-17T00:47:52.135Z,12.31
2017-05-17T00:47:56.464Z,12.3
2017-05-17T00:48:00.909Z,12.3
2017-05-17T00:48:05.342Z,12.29
2017-05-17T00:48:09.768Z,12.3
2017-05-17T00:48:14.196Z,12.3
2017-05-17T00:48:18.395Z,12.29
2017-05-17T00:48:22.829Z,12.3
2017-05-17T00:48:27.268Z,12.29
2017-05-17T00:48:31.710Z,12.3
2017-05-17T00:48:36.189Z,12.3
2017-05-17T00:48:40.620Z,12.3
2017-05-17T00:48:45.056Z,12.29
2017-05-17T00:48:49.541Z,12.29
2017-05-17T00:48:53.969Z,12.29
2017-05-17T00:48:58.408Z,12.3
2017-05-17T00:49:02.725Z,12.3
2017-05-17T00:49:07.153Z,12.3
2017-05-17T00:49:11.587Z,12.3
2017-05-17T00:49:15.906Z,12.28
2017-05-17T00:49:20.340Z,12.29
2017-05-17T00:49:24.774Z,12.29
2017-05-17T00:49:29.201Z,12.29
2017-05-17T00:49:33.641Z,12.28
2017-05-17T00:49:38.069Z,12.28
2017-05-17T00:49:42.504Z,12.28
2017-05-17T00:49:46.934Z,12.28
2017-05-17T00:49:51.368Z,12.28
2017-05-17T00:49:55.813Z,12.27
2017-05-17T00:50:00.244Z,12.28
2017-05-17T00:50:04.675Z,12.28
2017-05-17T00:50:08.993Z,12.28
2017-05-17T00:50:13.471Z,12.28
2017-05-17T00:50:17.779Z,12.28
2017-05-17T00:50:22.091Z,12.28
2017-05-17T00:50:26.522Z,12.28
2017-05-17T00:50:31.009Z,12.28
2017-05-17T00:50:35.431Z,12.27
2017-05-17T00:50:39.864Z,12.27
2017-05-17T00:50:44.372Z,12.27
2017-05-17T00:50:48.812Z,12.27
2017-05-17T00:50:53.240Z,12.27
2017-05-17T00:50:57.668Z,12.28
2017-05-17T00:51:02.349Z,12.27
2017-05-17T00:51:06.547Z,12.26
2017-05-17T00:51:10.863Z,12.27
2017-05-17T00:51:15.291Z,12.26
2017-05-17T00:51:19.628Z,12.27
2017-05-17T00:51:24.063Z,12.26
2017-05-17T00:51:28.377Z,12.26
2017-05-17T00:51:32.814Z,12.26
2017-05-17T00:51:37.242Z,12.25
2017-05-17T00:51:41.674Z,12.26
2017-05-17T00:51:46.106Z,12.26
2017-05-17T00:51:50.531Z,12.26
2017-05-17T00:51:54.958Z,12.26
2017-05-17T00:51:59.389Z,12.25
2017-05-17T00:52:03.762Z,12.25
2017-05-17T00:52:08.086Z,12.25
2017-05-17T00:52:12.527Z,12.26
2017-05-17T00:52:16.959Z,12.25
2017-05-17T00:52:21.384Z,12.25
2017-05-17T00:52:25.815Z,12.24
2017-05-17T00:52:30.246Z,12.25
2017-05-17T00:52:34.728Z,12.24
2017-05-17T00:52:39.165Z,12.25
2017-05-17T00:52:43.594Z,12.24
2017-05-17T00:52:48.031Z,12.24
2017-05-17T00:52:52.474Z,12.24
2017-05-17T00:52:56.666Z,12.24
2017-05-17T00:53:01.094Z,12.24
2017-05-17T00:53:05.464Z,12.24
2017-05-17T00:53:09.954Z,12.23
2017-05-17T00:53:14.383Z,12.24
2017-05-17T00:53:18.817Z,12.23
2017-05-17T00:53:23.173Z,12.23
2017-05-17T00:53:27.603Z,12.23
2017-05-17T00:53:32.039Z,12.22
2017-05-17T00:53:36.519Z,12.23
2017-05-17T00:53:40.949Z,12.22
2017-05-17T00:53:45.394Z,12.23
2017-05-17T00:53:49.707Z,12.24
2017-05-17T00:53:54.031Z,12.23
2017-05-17T00:53:58.471Z,12.22
2017-05-17T00:54:02.907Z,12.22
2017-05-17T00:54:07.101Z,12.21
2017-05-17T00:54:11.415Z,12.22
2017-05-17T00:54:15.735Z,12.23
2017-05-17T00:54:19.950Z,12.22
2017-05-17T00:54:24.270Z,12.22
2017-05-17T00:54:28.703Z,12.23
2017-05-17T00:54:32.957Z,12.22
2017-05-17T00:54:37.383Z,12.23
2017-05-17T00:54:41.810Z,12.22
2017-05-17T00:54:45.998Z,12.22
2017-05-17T00:54:50.427Z,12.22
2017-05-17T00:54:54.880Z,12.23
2017-05-17T00:54:59.312Z,12.23
2017-05-17T00:55:03.749Z,12.22
2017-05-17T00:55:08.066Z,12.22
2017-05-17T00:55:12.373Z,12.22
2017-05-17T00:55:16.685Z,12.22
2017-05-17T00:55:20.999Z,12.22
2017-05-17T00:55:25.315Z,12.21
2017-05-17T00:55:29.748Z,12.22
2017-05-17T00:55:34.179Z,12.22
2017-05-17T00:55:38.488Z,12.22
2017-05-17T00:55:42.687Z,12.22
2017-05-17T00:55:47.114Z,12.22
2017-05-17T00:55:51.537Z,12.22
2017-05-17T00:55:56.013Z,12.22
2017-05-17T00:56:00.332Z,12.22
2017-05-17T00:56:04.868Z,12.22
2017-05-17T00:56:09.183Z,12.23
2017-05-17T00:56:13.611Z,12.22
2017-05-17T00:56:18.036Z,12.23
2017-05-17T00:56:22.353Z,12.22
2017-05-17T00:56:26.714Z,12.22
2017-05-17T00:56:31.141Z,12.22
2017-05-17T00:56:35.453Z,12.22
2017-05-17T00:56:39.878Z,12.23
2017-05-17T00:56:44.191Z,12.22
2017-05-17T00:56:48.617Z,12.22